Pesca Real — CUCD-5 — position and weather

sailwx.info

Track history (hours):
 
Tides and Currents Weather Stations Pressure Air Temp Water Temp Dewpoint Dewpoint Depression Visibility Wind Speed Wind Dir Waves Ship Positions

Pesca Real

Last reported at 2018-Feb-23 09:54 UTC. Time now 2018-Jun-19 19:53 UTC.
Position N 41°16' W 008°45'.
Warning: this ship's position is months out of date.

Length 11 m.

Type: Fishing. MMSI: 263267000.

Date/timePositionNaut miles runAvg speedWind from/ knotsBaromVisibWave heightAir tempDewpointWater temp
2018-Feb-23 09:54N 41°16' W 008°45'4 9.7
2018-Feb-23 09:30N 41°13' W 008°44'2 4.5
2018-Feb-23 09:00N 41°11' W 008°42'0 0.0
2018-Feb-21 09:12N 41°11' W 008°42'0 0.0
2018-Feb-21 08:59N 41°11' W 008°42'0 0.0
2018-Feb-21 08:30N 41°11' W 008°42'0 0.0
2018-Feb-21 07:59N 41°11' W 008°42'0 0.0
2018-Feb-21 07:30N 41°11' W 008°42'1 1.6
2018-Feb-21 07:00N 41°10' W 008°42'  
2018-Feb-18 22:45N 41°00' W 008°45'3 9.9
2018-Feb-18 22:27N 41°03' W 008°44'4 9.8
2018-Feb-18 22:00N 41°07' W 008°43'4 7.1
2018-Feb-18 21:30N 41°11' W 008°42'  
2018-Feb-16 11:04N 41°11' W 008°42'0 0.0
2018-Feb-16 11:00N 41°11' W 008°42'0 0.1
2018-Feb-16 10:30N 41°11' W 008°42'  
Track history (hours):
 
Tides and Currents Weather Stations Pressure Air Temp Water Temp Dewpoint Dewpoint Depression Visibility Wind Speed Wind Dir Waves Ship Positions

Pesca Real

Last reported at 2018-Feb-23 09:54 UTC. Time now 2018-Jun-19 19:53 UTC.
Position N 41°16' W 008°45'.
Warning: this ship's position is months out of date.

Length 11 m.

Type: Fishing. MMSI: 263267000.

Date/timePositionNaut miles runAvg speedWind from/ knotsBaromVisibWave heightAir tempDewpointWater temp
2018-Feb-23 09:54N 41°16' W 008°45'4 9.7
2018-Feb-23 09:30N 41°13' W 008°44'2 4.5
2018-Feb-23 09:00N 41°11' W 008°42'0 0.0
2018-Feb-21 09:12N 41°11' W 008°42'0 0.0
2018-Feb-21 08:59N 41°11' W 008°42'0 0.0
2018-Feb-21 08:30N 41°11' W 008°42'0 0.0
2018-Feb-21 07:59N 41°11' W 008°42'0 0.0
2018-Feb-21 07:30N 41°11' W 008°42'1 1.6
2018-Feb-21 07:00N 41°10' W 008°42'  
2018-Feb-18 22:45N 41°00' W 008°45'3 9.9
2018-Feb-18 22:27N 41°03' W 008°44'4 9.8
2018-Feb-18 22:00N 41°07' W 008°43'4 7.1
2018-Feb-18 21:30N 41°11' W 008°42'  
2018-Feb-16 11:04N 41°11' W 008°42'0 0.0
2018-Feb-16 11:00N 41°11' W 008°42'0 0.1
2018-Feb-16 10:30N 41°11' W 008°42'  

Dump ship's entire track history